createdAt,value
2017-09-04T00:00:20.602Z,0
2017-09-04T00:01:21.289Z,0
2017-09-04T00:02:22.229Z,0
2017-09-04T00:03:22.915Z,0
2017-09-04T00:04:23.613Z,0
2017-09-04T00:05:24.308Z,0
2017-09-04T00:06:24.997Z,0
2017-09-04T00:07:25.939Z,0
2017-09-04T00:08:26.631Z,0
2017-09-04T00:09:27.325Z,0
2017-09-04T00:10:28.018Z,0
2017-09-04T00:11:28.706Z,0
2017-09-04T00:12:29.401Z,0
2017-09-04T00:13:30.089Z,0
2017-09-04T00:14:30.777Z,0
2017-09-04T00:15:31.463Z,0
2017-09-04T00:16:32.154Z,0
2017-09-04T00:17:33.091Z,0
2017-09-04T00:18:33.780Z,0
2017-09-04T00:19:34.472Z,0
2017-09-04T00:20:35.158Z,0
2017-09-04T00:21:35.855Z,0
2017-09-04T00:22:36.792Z,0
2017-09-04T00:23:37.477Z,0
2017-09-04T00:24:38.164Z,0
2017-09-04T00:25:38.850Z,0
2017-09-04T00:26:39.552Z,0
2017-09-04T00:27:40.588Z,0
2017-09-04T00:28:41.276Z,0
2017-09-04T00:29:41.963Z,0
2017-09-04T00:30:42.653Z,0
2017-09-04T00:31:43.344Z,0
2017-09-04T00:32:44.286Z,0
2017-09-04T00:33:44.984Z,0
2017-09-04T00:34:45.671Z,0
2017-09-04T00:35:46.354Z,0
2017-09-04T00:36:47.044Z,0
2017-09-04T00:37:48.035Z,0
2017-09-04T00:38:48.729Z,0
2017-09-04T00:39:49.414Z,0
2017-09-04T00:40:50.109Z,0
2017-09-04T00:41:50.797Z,0
2017-09-04T00:42:51.738Z,0
2017-09-04T00:43:52.424Z,0
2017-09-04T00:44:53.111Z,0
2017-09-04T00:45:53.800Z,0
2017-09-04T00:46:54.500Z,0
2017-09-04T00:47:55.428Z,0
2017-09-04T00:48:56.114Z,0
2017-09-04T00:49:56.807Z,0
2017-09-04T00:50:57.494Z,0
2017-09-04T00:51:58.180Z,0
2017-09-04T00:52:59.420Z,0
2017-09-04T00:54:00.115Z,0
2017-09-04T00:55:00.805Z,0
2017-09-04T00:56:01.492Z,0
2017-09-04T00:57:02.184Z,0
2017-09-04T00:58:03.122Z,0
2017-09-04T00:59:03.812Z,0
2017-09-04T01:00:04.511Z,0
2017-09-04T01:01:05.197Z,0
2017-09-04T01:02:05.882Z,0
2017-09-04T01:03:06.822Z,0
2017-09-04T01:04:07.513Z,0
2017-09-04T01:05:08.206Z,0
2017-09-04T01:06:08.906Z,0
2017-09-04T01:07:09.591Z,0
2017-09-04T01:08:10.526Z,0
2017-09-04T01:09:11.212Z,0
2017-09-04T01:10:11.897Z,0
2017-09-04T01:11:12.593Z,0
2017-09-04T01:12:13.278Z,0
2017-09-04T01:13:14.221Z,0
2017-09-04T01:14:14.905Z,0
2017-09-04T01:15:15.587Z,0
2017-09-04T01:16:16.276Z,0
2017-09-04T01:17:16.966Z,0
2017-09-04T01:18:17.653Z,0
2017-09-04T01:19:18.346Z,0
2017-09-04T01:20:19.038Z,0
2017-09-04T01:21:19.726Z,0
2017-09-04T01:22:20.419Z,0
2017-09-04T01:23:21.362Z,0
2017-09-04T01:24:22.049Z,0
2017-09-04T01:25:22.731Z,0
2017-09-04T01:26:23.423Z,0
2017-09-04T01:27:24.116Z,0
2017-09-04T01:28:25.040Z,0
2017-09-04T01:29:25.735Z,0
2017-09-04T01:30:26.420Z,0
2017-09-04T01:31:27.105Z,0
2017-09-04T01:32:27.795Z,0
2017-09-04T01:33:28.730Z,0
2017-09-04T01:34:29.416Z,0
2017-09-04T01:35:30.101Z,0
2017-09-04T01:36:30.786Z,0
2017-09-04T01:37:31.484Z,0
2017-09-04T01:38:32.420Z,0
2017-09-04T01:39:33.108Z,0
2017-09-04T01:40:33.793Z,0
2017-09-04T01:41:34.486Z,0
2017-09-04T01:42:35.168Z,0
2017-09-04T01:43:36.105Z,0
2017-09-04T01:44:36.792Z,0
2017-09-04T01:45:37.481Z,0
2017-09-04T01:46:38.172Z,0
2017-09-04T01:47:38.862Z,0
2017-09-04T01:48:39.800Z,0
2017-09-04T01:49:40.493Z,0
2017-09-04T01:50:41.183Z,0
2017-09-04T01:51:41.870Z,0
2017-09-04T01:52:42.556Z,0
2017-09-04T01:53:43.495Z,0
2017-09-04T01:54:44.181Z,0
2017-09-04T01:55:44.868Z,0
2017-09-04T01:56:45.560Z,0
2017-09-04T01:57:46.244Z,0
2017-09-04T01:58:46.981Z,0
2017-09-04T01:59:47.669Z,0
2017-09-04T02:00:48.357Z,0
2017-09-04T02:01:49.042Z,0
2017-09-04T02:02:49.727Z,0
2017-09-04T02:03:50.663Z,0
2017-09-04T02:04:51.351Z,0
2017-09-04T02:05:52.038Z,0
2017-09-04T02:06:52.725Z,0
2017-09-04T02:07:53.410Z,0
2017-09-04T02:08:54.353Z,0
2017-09-04T02:09:55.041Z,0
2017-09-04T02:10:55.728Z,0
2017-09-04T02:11:56.418Z,0
2017-09-04T02:12:57.108Z,0
2017-09-04T02:13:58.045Z,0
2017-09-04T02:14:58.731Z,0
2017-09-04T02:15:59.415Z,0
2017-09-04T02:17:00.097Z,0
2017-09-04T02:18:00.783Z,0
2017-09-04T02:19:01.725Z,0
2017-09-04T02:20:02.414Z,0
2017-09-04T02:21:03.099Z,0
2017-09-04T02:22:03.786Z,0
2017-09-04T02:23:04.472Z,0
2017-09-04T02:24:05.411Z,0
2017-09-04T02:25:06.099Z,0
2017-09-04T02:26:06.785Z,0
2017-09-04T02:27:07.473Z,0
2017-09-04T02:28:08.158Z,0
2017-09-04T02:29:08.846Z,0
2017-09-04T02:30:09.534Z,0
2017-09-04T02:31:10.217Z,0
2017-09-04T02:32:10.905Z,0
2017-09-04T02:33:11.594Z,0
2017-09-04T02:34:12.533Z,0
2017-09-04T02:35:13.217Z,0
2017-09-04T02:36:13.919Z,0
2017-09-04T02:37:14.613Z,0
2017-09-04T02:38:15.286Z,0
2017-09-04T02:39:16.232Z,0
2017-09-04T02:40:16.920Z,0
2017-09-04T02:41:17.614Z,0
2017-09-04T02:42:18.318Z,0
2017-09-04T02:43:19.008Z,0
2017-09-04T02:44:19.955Z,0
2017-09-04T02:45:20.632Z,0
2017-09-04T02:46:21.336Z,0
2017-09-04T02:47:22.025Z,0
2017-09-04T02:48:22.712Z,0
2017-09-04T02:49:23.659Z,0
2017-09-04T02:50:24.350Z,0
2017-09-04T02:51:25.037Z,0
2017-09-04T02:52:25.723Z,0
2017-09-04T02:53:26.409Z,0
2017-09-04T02:54:27.097Z,0
2017-09-04T02:55:27.789Z,0
2017-09-04T02:56:28.478Z,0
2017-09-04T02:57:29.163Z,0
2017-09-04T02:58:29.857Z,0
2017-09-04T02:59:30.798Z,0
2017-09-04T03:00:31.500Z,0
2017-09-04T03:01:32.181Z,0
2017-09-04T03:02:32.864Z,0
2017-09-04T03:03:33.554Z,0
2017-09-04T03:04:34.484Z,0
2017-09-04T03:05:35.178Z,0
2017-09-04T03:06:35.865Z,0
2017-09-04T03:07:36.552Z,0
2017-09-04T03:08:37.238Z,0
2017-09-04T03:09:38.175Z,0
2017-09-04T03:10:38.862Z,0
2017-09-04T03:11:39.562Z,0
2017-09-04T03:12:40.252Z,0
2017-09-04T03:13:40.939Z,0
2017-09-04T03:14:41.878Z,0
2017-09-04T03:15:42.567Z,0
2017-09-04T03:16:43.250Z,0
2017-09-04T03:17:43.938Z,0
2017-09-04T03:18:44.623Z,0
2017-09-04T03:19:45.612Z,0
2017-09-04T03:20:46.307Z,0
2017-09-04T03:21:46.993Z,0
2017-09-04T03:22:47.681Z,0
2017-09-04T03:23:48.374Z,0
2017-09-04T03:24:49.064Z,0
2017-09-04T03:25:49.792Z,0
2017-09-04T03:26:50.448Z,0
2017-09-04T03:27:51.141Z,0
2017-09-04T03:28:51.836Z,0
2017-09-04T03:29:52.780Z,0
2017-09-04T03:30:53.468Z,0
2017-09-04T03:31:54.157Z,0
2017-09-04T03:32:54.850Z,0
2017-09-04T03:33:55.542Z,0
2017-09-04T03:34:56.234Z,0
2017-09-04T03:35:56.925Z,0
2017-09-04T03:36:57.617Z,0
2017-09-04T03:37:58.310Z,0
2017-09-04T03:38:59.002Z,0
2017-09-04T03:39:59.939Z,0
2017-09-04T03:41:00.625Z,0
2017-09-04T03:42:01.311Z,0
2017-09-04T03:43:01.998Z,0
2017-09-04T03:44:02.687Z,0
2017-09-04T03:45:03.622Z,0
2017-09-04T03:46:04.314Z,0
2017-09-04T03:47:04.999Z,0
2017-09-04T03:48:05.686Z,0
2017-09-04T03:49:06.373Z,0
2017-09-04T03:50:07.311Z,0
2017-09-04T03:51:07.997Z,0
2017-09-04T03:52:08.688Z,0
2017-09-04T03:53:09.376Z,0
2017-09-04T03:54:10.061Z,0
2017-09-04T03:55:11.009Z,0
2017-09-04T03:56:11.700Z,0
2017-09-04T03:57:12.389Z,0
2017-09-04T03:58:13.076Z,0
2017-09-04T03:59:13.768Z,0
2017-09-04T04:00:14.709Z,0
2017-09-04T04:01:15.399Z,0
2017-09-04T04:02:16.084Z,0
2017-09-04T04:03:16.770Z,0
2017-09-04T04:04:17.461Z,0
2017-09-04T04:05:18.399Z,0
2017-09-04T04:06:19.089Z,0
2017-09-04T04:07:19.779Z,0
2017-09-04T04:08:20.464Z,0
2017-09-04T04:09:21.156Z,0
2017-09-04T04:10:22.092Z,0
2017-09-04T04:11:22.785Z,0
2017-09-04T04:12:23.471Z,0
2017-09-04T04:13:24.161Z,0
2017-09-04T04:14:24.847Z,0
2017-09-04T04:15:25.787Z,4
2017-09-04T04:16:26.475Z,4
2017-09-04T04:17:27.171Z,0
2017-09-04T04:18:27.858Z,4
2017-09-04T04:19:28.549Z,0
2017-09-04T04:20:29.481Z,4
2017-09-04T04:21:30.177Z,4
2017-09-04T04:22:30.871Z,4
2017-09-04T04:23:31.559Z,8
2017-09-04T04:24:32.245Z,12
2017-09-04T04:25:32.933Z,12
2017-09-04T04:26:33.624Z,12
2017-09-04T04:27:34.313Z,16
2017-09-04T04:28:35.010Z,16
2017-09-04T04:29:35.694Z,16
2017-09-04T04:30:36.633Z,24
2017-09-04T04:31:37.320Z,24
2017-09-04T04:32:38.014Z,28
2017-09-04T04:33:38.699Z,32
2017-09-04T04:34:39.391Z,36
2017-09-04T04:35:40.333Z,40
2017-09-04T04:36:41.028Z,44
2017-09-04T04:37:41.712Z,52
2017-09-04T04:38:42.408Z,56
2017-09-04T04:39:43.097Z,64
2017-09-04T04:40:43.785Z,68
2017-09-04T04:41:44.475Z,76
2017-09-04T04:42:45.163Z,84
2017-09-04T04:43:45.852Z,88
2017-09-04T04:44:46.538Z,92
2017-09-04T04:45:47.482Z,104
2017-09-04T04:46:48.171Z,112
2017-09-04T04:47:48.859Z,128
2017-09-04T04:48:49.555Z,140
2017-09-04T04:49:50.245Z,156
2017-09-04T04:50:51.181Z,164
2017-09-04T04:51:51.872Z,168
2017-09-04T04:52:52.562Z,180
2017-09-04T04:53:53.250Z,192
2017-09-04T04:54:53.944Z,200
2017-09-04T04:55:54.635Z,208
2017-09-04T04:56:55.327Z,220
2017-09-04T04:57:56.024Z,232
2017-09-04T04:58:56.717Z,240
2017-09-04T04:59:57.408Z,256
2017-09-04T05:00:58.098Z,264
2017-09-04T05:01:58.789Z,280
2017-09-04T05:02:59.484Z,296
2017-09-04T05:04:00.174Z,308
2017-09-04T05:05:00.864Z,320
2017-09-04T05:06:01.805Z,336
2017-09-04T05:07:02.492Z,348
2017-09-04T05:08:03.180Z,368
2017-09-04T05:09:03.871Z,384
2017-09-04T05:10:04.564Z,396
2017-09-04T05:11:05.505Z,408
2017-09-04T05:12:06.196Z,420
2017-09-04T05:13:06.894Z,428
2017-09-04T05:14:07.585Z,436
2017-09-04T05:15:08.282Z,452
2017-09-04T05:16:09.227Z,464
2017-09-04T05:17:09.921Z,480
2017-09-04T05:18:10.612Z,512
2017-09-04T05:19:11.299Z,544
2017-09-04T05:20:11.991Z,564
2017-09-04T05:21:12.932Z,592
2017-09-04T05:22:13.624Z,608
2017-09-04T05:23:14.317Z,620
2017-09-04T05:24:15.010Z,640
2017-09-04T05:25:15.700Z,672
2017-09-04T05:26:16.643Z,712
2017-09-04T05:27:17.333Z,704
2017-09-04T05:28:18.028Z,712
2017-09-04T05:29:18.719Z,712
2017-09-04T05:30:19.411Z,724
2017-09-04T05:31:20.352Z,720
2017-09-04T05:32:21.043Z,752
2017-09-04T05:33:21.735Z,792
2017-09-04T05:34:22.427Z,800
2017-09-04T05:35:23.121Z,832
2017-09-04T05:36:24.069Z,876
2017-09-04T05:37:24.768Z,912
2017-09-04T05:38:25.458Z,920
2017-09-04T05:39:26.149Z,936
2017-09-04T05:40:26.847Z,932
2017-09-04T05:41:27.793Z,948
2017-09-04T05:42:28.482Z,964
2017-09-04T05:43:29.189Z,976
2017-09-04T05:44:29.879Z,996
2017-09-04T05:45:30.571Z,996
2017-09-04T05:46:31.511Z,1028
2017-09-04T05:47:32.203Z,1068
2017-09-04T05:48:32.894Z,1080
2017-09-04T05:49:33.586Z,1084
2017-09-04T05:50:34.281Z,1076
2017-09-04T05:51:35.221Z,1088
2017-09-04T05:52:35.914Z,1080
2017-09-04T05:53:36.606Z,1068
2017-09-04T05:54:37.296Z,1064
2017-09-04T05:55:37.987Z,1060
2017-09-04T05:56:38.935Z,1088
2017-09-04T05:57:39.634Z,1132
2017-09-04T05:58:40.323Z,1172
2017-09-04T05:59:41.010Z,1204
2017-09-04T06:00:41.703Z,1236
2017-09-04T06:01:42.646Z,1248
2017-09-04T06:02:43.341Z,1272
2017-09-04T06:03:44.032Z,1300
2017-09-04T06:04:44.725Z,1352
2017-09-04T06:05:45.417Z,1376
2017-09-04T06:06:46.358Z,1388
2017-09-04T06:07:47.047Z,1432
2017-09-04T06:08:47.738Z,1436
2017-09-04T06:09:48.430Z,1436
2017-09-04T06:10:49.117Z,1444
2017-09-04T06:11:50.110Z,1500
2017-09-04T06:12:50.803Z,1532
2017-09-04T06:13:51.496Z,1576
2017-09-04T06:14:52.195Z,1672
2017-09-04T06:15:52.897Z,1784
2017-09-04T06:16:53.844Z,1868
2017-09-04T06:17:54.531Z,1960
2017-09-04T06:18:55.221Z,2020
2017-09-04T06:19:55.908Z,2064
2017-09-04T06:20:56.594Z,2184
2017-09-04T06:21:57.536Z,2232
2017-09-04T06:22:58.228Z,2236
2017-09-04T06:23:58.925Z,2228
2017-09-04T06:24:59.616Z,2260
2017-09-04T06:26:00.309Z,2312
2017-09-04T06:27:01.002Z,2364
2017-09-04T06:28:01.691Z,2332
2017-09-04T06:29:02.380Z,2412
2017-09-04T06:30:03.073Z,2432
2017-09-04T06:31:03.775Z,2388
2017-09-04T06:32:04.716Z,2292
2017-09-04T06:33:05.417Z,2272
2017-09-04T06:34:06.104Z,2380
2017-09-04T06:35:06.803Z,2500
2017-09-04T06:36:07.493Z,2608
2017-09-04T06:37:08.439Z,2636
2017-09-04T06:38:09.137Z,2668
2017-09-04T06:39:09.829Z,2652
2017-09-04T06:40:10.522Z,2688
2017-09-04T06:41:11.213Z,2704
2017-09-04T06:42:12.157Z,2632
2017-09-04T06:43:12.850Z,2620
2017-09-04T06:44:13.548Z,2660
2017-09-04T06:45:14.242Z,2792
2017-09-04T06:46:14.928Z,2916
2017-09-04T06:47:15.869Z,2944
2017-09-04T06:48:16.561Z,2984
2017-09-04T06:49:17.253Z,3040
2017-09-04T06:50:17.942Z,3064
2017-09-04T06:51:18.643Z,3148
2017-09-04T06:52:19.584Z,3120
2017-09-04T06:53:20.276Z,3088
2017-09-04T06:54:20.967Z,3160
2017-09-04T06:55:21.662Z,3272
2017-09-04T06:56:22.353Z,3324
2017-09-04T06:57:23.295Z,3240
2017-09-04T06:58:23.989Z,3204
2017-09-04T06:59:24.680Z,3124
2017-09-04T07:00:25.380Z,2984
2017-09-04T07:01:26.074Z,2968
2017-09-04T07:02:27.023Z,3024
2017-09-04T07:03:27.716Z,3072
2017-09-04T07:04:28.409Z,3168
2017-09-04T07:05:29.098Z,3240
2017-09-04T07:06:29.791Z,3348
2017-09-04T07:07:30.734Z,3452
2017-09-04T07:08:31.428Z,3544
2017-09-04T07:09:32.127Z,3764
2017-09-04T07:10:32.817Z,3952
2017-09-04T07:11:33.510Z,3988
2017-09-04T07:12:34.461Z,3876
2017-09-04T07:13:35.154Z,3748
2017-09-04T07:14:35.850Z,3692
2017-09-04T07:15:36.546Z,3648
2017-09-04T07:16:37.243Z,3596
2017-09-04T07:17:38.184Z,3480
2017-09-04T07:18:38.874Z,3584
2017-09-04T07:19:39.564Z,3724
2017-09-04T07:20:40.259Z,3780
2017-09-04T07:21:40.955Z,3884
2017-09-04T07:22:41.654Z,3152
2017-09-04T07:23:42.346Z,3532
2017-09-04T07:24:43.043Z,3480
2017-09-04T07:25:43.731Z,3400
2017-09-04T07:26:44.429Z,3572
2017-09-04T07:27:45.372Z,3596
2017-09-04T07:28:46.061Z,3620
2017-09-04T07:29:46.762Z,3724
2017-09-04T07:30:47.455Z,3784
2017-09-04T07:31:48.150Z,4000
2017-09-04T07:32:49.091Z,4040
2017-09-04T07:33:49.787Z,4036
2017-09-04T07:34:50.480Z,4208
2017-09-04T07:35:51.175Z,4272
2017-09-04T07:36:51.867Z,4388
2017-09-04T07:37:52.808Z,4396
2017-09-04T07:38:53.500Z,4316
2017-09-04T07:39:54.196Z,3044
2017-09-04T07:40:54.851Z,4324
2017-09-04T07:41:55.578Z,4252
2017-09-04T07:42:56.524Z,4192
2017-09-04T07:43:57.220Z,4320
2017-09-04T07:44:57.914Z,4468
2017-09-04T07:45:58.606Z,4476
2017-09-04T07:46:59.299Z,4600
2017-09-04T07:48:00.251Z,4676
2017-09-04T07:49:00.944Z,4724
2017-09-04T07:50:01.640Z,4828
2017-09-04T07:51:02.334Z,4928
2017-09-04T07:52:03.024Z,3144
2017-09-04T07:53:03.969Z,4820
2017-09-04T07:54:04.662Z,4888
2017-09-04T07:55:05.351Z,4912
2017-09-04T07:56:06.049Z,4892
2017-09-04T07:57:06.743Z,4900
2017-09-04T07:58:07.435Z,4504
2017-09-04T07:59:08.138Z,4476
2017-09-04T08:00:08.830Z,5200
2017-09-04T08:01:09.527Z,5108
2017-09-04T08:02:10.225Z,5088
2017-09-04T08:03:11.170Z,5596
2017-09-04T08:04:11.866Z,4536
2017-09-04T08:05:12.561Z,4540
2017-09-04T08:06:13.257Z,4180
2017-09-04T08:07:13.955Z,5712
2017-09-04T08:08:14.897Z,5820
2017-09-04T08:09:15.591Z,5664
2017-09-04T08:10:16.284Z,5496
2017-09-04T08:11:16.978Z,5428
2017-09-04T08:12:17.671Z,5020
2017-09-04T08:13:18.636Z,5500
2017-09-04T08:14:19.328Z,5720
2017-09-04T08:15:20.022Z,4120
2017-09-04T08:16:20.720Z,5124
2017-09-04T08:17:21.414Z,5096
2017-09-04T08:18:22.363Z,5596
2017-09-04T08:19:23.059Z,6388
2017-09-04T08:20:23.751Z,7024
2017-09-04T08:21:24.444Z,7428
2017-09-04T08:22:25.135Z,7600
2017-09-04T08:23:26.079Z,7240
2017-09-04T08:24:26.775Z,5880
2017-09-04T08:25:27.468Z,7160
2017-09-04T08:26:28.158Z,6836
2017-09-04T08:27:28.852Z,6724
2017-09-04T08:28:29.800Z,6720
2017-09-04T08:29:30.486Z,5964
2017-09-04T08:30:31.174Z,5788
2017-09-04T08:31:31.870Z,6364
2017-09-04T08:32:32.564Z,6512
2017-09-04T08:33:33.506Z,6332
2017-09-04T08:34:34.205Z,6848
2017-09-04T08:35:34.898Z,6768
2017-09-04T08:36:35.588Z,6860
2017-09-04T08:37:36.297Z,4592
2017-09-04T08:38:37.248Z,5084
2017-09-04T08:39:37.928Z,6740
2017-09-04T08:40:38.639Z,6640
2017-09-04T08:41:39.332Z,6952
2017-09-04T08:42:40.026Z,5116
2017-09-04T08:43:40.986Z,4496
2017-09-04T08:44:41.677Z,5636
2017-09-04T08:45:42.367Z,6428
2017-09-04T08:46:43.066Z,5736
2017-09-04T08:47:43.768Z,5636
2017-09-04T08:48:44.714Z,5404
2017-09-04T08:49:45.407Z,6328
2017-09-04T08:50:46.112Z,6800
2017-09-04T08:51:46.808Z,5596
2017-09-04T08:52:47.506Z,6392
2017-09-04T08:53:48.194Z,5920
2017-09-04T08:54:48.891Z,5180
2017-09-04T08:55:49.591Z,5220
2017-09-04T08:56:50.289Z,4972
2017-09-04T08:57:50.982Z,4880
2017-09-04T08:58:51.934Z,4788
2017-09-04T08:59:52.626Z,4648
2017-09-04T09:00:53.329Z,4480
2017-09-04T09:01:54.024Z,4596
2017-09-04T09:02:54.718Z,4372
2017-09-04T09:03:55.663Z,4460
2017-09-04T09:04:56.359Z,3932
2017-09-04T09:05:57.054Z,4112
2017-09-04T09:06:57.755Z,4196
2017-09-04T09:07:58.450Z,4280
2017-09-04T09:08:59.393Z,4188
2017-09-04T09:10:00.083Z,4196
2017-09-04T09:11:00.783Z,4172
2017-09-04T09:12:01.473Z,4204
2017-09-04T09:13:02.171Z,4164
2017-09-04T09:14:03.116Z,3740
2017-09-04T09:15:03.810Z,3968
2017-09-04T09:16:04.505Z,4000
2017-09-04T09:17:05.198Z,4024
2017-09-04T09:18:05.893Z,4148
2017-09-04T09:19:06.836Z,4072
2017-09-04T09:20:07.528Z,4252
2017-09-04T09:21:08.227Z,4328
2017-09-04T09:22:08.929Z,4368
2017-09-04T09:23:09.627Z,4368
2017-09-04T09:24:10.564Z,4364
2017-09-04T09:25:11.291Z,4464
2017-09-04T09:26:11.986Z,4396
2017-09-04T09:27:12.683Z,4312
2017-09-04T09:28:13.377Z,4312
2017-09-04T09:29:14.070Z,4248
2017-09-04T09:30:14.769Z,4256
2017-09-04T09:31:15.465Z,3644
2017-09-04T09:32:16.155Z,3864
2017-09-04T09:33:16.856Z,3916
2017-09-04T09:34:17.796Z,4024
2017-09-04T09:35:18.500Z,4228
2017-09-04T09:36:19.198Z,3904
2017-09-04T09:37:19.902Z,4180
2017-09-04T09:38:20.602Z,4224
2017-09-04T09:39:21.553Z,4324
2017-09-04T09:40:22.242Z,4592
2017-09-04T09:41:22.938Z,4884
2017-09-04T09:42:23.635Z,4836
2017-09-04T09:43:24.329Z,4920
2017-09-04T09:44:25.275Z,4880
2017-09-04T09:45:25.973Z,4956
2017-09-04T09:46:26.667Z,5140
2017-09-04T09:47:27.367Z,5336
2017-09-04T09:48:28.062Z,5428
2017-09-04T09:49:29.006Z,5480
2017-09-04T09:50:29.700Z,5340
2017-09-04T09:51:30.396Z,5324
2017-09-04T09:52:31.093Z,5480
2017-09-04T09:53:31.785Z,5564
2017-09-04T09:54:32.731Z,5524
2017-09-04T09:55:33.424Z,5516
2017-09-04T09:56:34.118Z,5492
2017-09-04T09:57:34.818Z,5452
2017-09-04T09:58:35.513Z,5452
2017-09-04T09:59:36.463Z,5552
2017-09-04T10:00:37.157Z,5612
2017-09-04T10:01:37.856Z,5664
2017-09-04T10:02:38.552Z,5748
2017-09-04T10:03:39.245Z,5800
2017-09-04T10:04:40.204Z,5924
2017-09-04T10:05:40.883Z,6036
2017-09-04T10:06:41.579Z,6064
2017-09-04T10:07:42.271Z,6072
2017-09-04T10:08:42.963Z,6152
2017-09-04T10:09:43.911Z,6096
2017-09-04T10:10:44.608Z,6068
2017-09-04T10:11:45.315Z,5996
2017-09-04T10:12:46.018Z,5996
2017-09-04T10:13:46.712Z,6096
2017-09-04T10:14:47.438Z,6040
2017-09-04T10:15:48.102Z,5924
2017-09-04T10:16:48.793Z,5372
2017-09-04T10:17:49.485Z,5632
2017-09-04T10:18:50.179Z,5676
2017-09-04T10:19:51.124Z,5648
2017-09-04T10:20:51.822Z,5580
2017-09-04T10:21:52.519Z,5796
2017-09-04T10:22:53.213Z,5948
2017-09-04T10:23:53.910Z,6012
2017-09-04T10:24:54.854Z,6040
2017-09-04T10:25:55.551Z,5996
2017-09-04T10:26:56.251Z,5956
2017-09-04T10:27:56.945Z,5936
2017-09-04T10:28:57.661Z,5916
2017-09-04T10:29:58.596Z,5812
2017-09-04T10:30:59.292Z,5696
2017-09-04T10:32:00.006Z,5324
2017-09-04T10:33:00.930Z,5524
2017-09-04T10:34:01.628Z,5652
2017-09-04T10:35:02.574Z,5768
2017-09-04T10:36:03.276Z,5780
2017-09-04T10:37:03.980Z,5828
2017-09-04T10:38:04.675Z,5756
2017-09-04T10:39:05.369Z,5704
2017-09-04T10:40:06.311Z,5528
2017-09-04T10:41:07.017Z,5444
2017-09-04T10:42:07.713Z,5792
2017-09-04T10:43:08.407Z,5908
2017-09-04T10:44:09.104Z,5920
2017-09-04T10:45:10.049Z,5948
2017-09-04T10:46:10.751Z,5912
2017-09-04T10:47:11.449Z,5884
2017-09-04T10:48:12.145Z,5860
2017-09-04T10:49:12.839Z,5820
2017-09-04T10:50:13.786Z,5760
2017-09-04T10:51:14.480Z,5684
2017-09-04T10:52:15.184Z,5652
2017-09-04T10:53:15.873Z,5608
2017-09-04T10:54:16.569Z,5528
2017-09-04T10:55:17.516Z,5472
2017-09-04T10:56:18.219Z,5424
2017-09-04T10:57:18.926Z,5332
2017-09-04T10:58:19.619Z,5288
2017-09-04T10:59:20.318Z,5272
2017-09-04T11:00:21.013Z,5264
2017-09-04T11:01:21.727Z,5240
2017-09-04T11:02:22.421Z,5252
2017-09-04T11:03:23.116Z,5300
2017-09-04T11:04:23.817Z,5368
2017-09-04T11:05:24.765Z,5332
2017-09-04T11:06:25.487Z,5256
2017-09-04T11:07:26.170Z,5312
2017-09-04T11:08:26.869Z,5304
2017-09-04T11:09:27.564Z,5312
2017-09-04T11:10:28.514Z,5312
2017-09-04T11:11:29.208Z,5316
2017-09-04T11:12:29.922Z,5332
2017-09-04T11:13:30.603Z,5364
2017-09-04T11:14:31.294Z,5400
2017-09-04T11:15:32.242Z,5428
2017-09-04T11:16:32.939Z,5460
2017-09-04T11:17:33.632Z,5480
2017-09-04T11:18:34.328Z,5492
2017-09-04T11:19:35.027Z,5520
2017-09-04T11:20:35.971Z,5564
2017-09-04T11:21:36.669Z,5612
2017-09-04T11:22:37.363Z,5656
2017-09-04T11:23:38.060Z,5700
2017-09-04T11:24:38.755Z,5736
2017-09-04T11:25:39.702Z,5792
2017-09-04T11:26:40.396Z,5864
2017-09-04T11:27:41.089Z,5940
2017-09-04T11:28:41.789Z,5972
2017-09-04T11:29:42.483Z,6040
2017-09-04T11:30:43.442Z,23232
2017-09-04T11:31:44.136Z,70720
2017-09-04T11:32:44.836Z,80960
2017-09-04T11:33:45.547Z,83712
2017-09-04T11:34:46.245Z,72544
2017-09-04T11:35:47.199Z,86016
2017-09-04T11:36:47.904Z,91680
2017-09-04T11:37:48.607Z,91776
2017-09-04T11:38:49.303Z,91680
2017-09-04T11:39:49.999Z,87360
2017-09-04T11:40:50.946Z,79712
2017-09-04T11:41:51.647Z,75168
2017-09-04T11:42:52.348Z,69472
2017-09-04T11:43:53.045Z,71040
2017-09-04T11:44:53.752Z,74432
2017-09-04T11:45:54.705Z,88896
2017-09-04T11:46:55.412Z,83488
2017-09-04T11:47:56.114Z,74080
2017-09-04T11:48:56.817Z,91712
2017-09-04T11:49:57.519Z,70944
2017-09-04T11:50:58.471Z,77792
2017-09-04T11:51:59.181Z,79360
2017-09-04T11:52:59.886Z,81152
2017-09-04T11:54:00.587Z,87136
2017-09-04T11:55:01.291Z,88800
2017-09-04T11:56:02.244Z,94528
2017-09-04T11:57:02.948Z,93216
2017-09-04T11:58:03.649Z,91872
2017-09-04T11:59:04.352Z,86560
2017-09-04T12:00:05.059Z,81856
2017-09-04T12:01:06.017Z,76704
2017-09-04T12:02:06.723Z,77600
2017-09-04T12:03:07.426Z,75488
2017-09-04T12:04:08.126Z,80288
2017-09-04T12:05:08.842Z,84832
2017-09-04T12:06:09.799Z,83104
2017-09-04T12:07:10.504Z,91552
2017-09-04T12:08:11.214Z,79200
2017-09-04T12:09:11.918Z,93472
2017-09-04T12:10:12.628Z,71680
2017-09-04T12:11:13.588Z,77280
2017-09-04T12:12:14.292Z,82592
2017-09-04T12:13:14.996Z,97408
2017-09-04T12:14:15.707Z,110784
2017-09-04T12:15:16.425Z,105184
2017-09-04T12:16:17.381Z,112832
2017-09-04T12:17:18.089Z,112448
2017-09-04T12:18:18.793Z,112704
2017-09-04T12:19:19.501Z,112256
2017-09-04T12:20:20.209Z,120832
2017-09-04T12:21:21.170Z,106016
2017-09-04T12:22:21.885Z,110528
2017-09-04T12:23:22.593Z,124992
2017-09-04T12:24:23.302Z,124128
2017-09-04T12:25:24.010Z,108192
2017-09-04T12:26:24.968Z,108960
2017-09-04T12:27:25.673Z,93312
2017-09-04T12:28:26.380Z,80128
2017-09-04T12:29:27.086Z,81312
2017-09-04T12:30:27.796Z,81952
2017-09-04T12:31:28.514Z,80992
2017-09-04T12:32:29.220Z,77888
2017-09-04T12:33:29.936Z,76224
2017-09-04T12:34:30.654Z,67712
2017-09-04T12:35:31.362Z,76576
2017-09-04T12:36:32.337Z,63392
2017-09-04T12:37:33.053Z,82816
2017-09-04T12:38:33.763Z,81920
2017-09-04T12:39:34.476Z,81760
2017-09-04T12:40:35.190Z,80608
2017-09-04T12:41:36.146Z,74976
2017-09-04T12:42:36.861Z,76640
2017-09-04T12:43:37.570Z,77952
2017-09-04T12:44:38.290Z,84128
2017-09-04T12:45:38.997Z,82880
2017-09-04T12:46:39.959Z,77696
2017-09-04T12:47:40.674Z,68736
2017-09-04T12:48:41.378Z,79488
2017-09-04T12:49:42.091Z,86816
2017-09-04T12:50:42.798Z,85696
2017-09-04T12:51:43.757Z,87200
2017-09-04T12:52:44.467Z,84320
2017-09-04T12:53:45.175Z,93440
2017-09-04T12:54:45.887Z,89344
2017-09-04T12:55:46.600Z,96864
2017-09-04T12:56:47.557Z,92384
2017-09-04T12:57:48.270Z,83456
2017-09-04T12:58:48.978Z,90560
2017-09-04T12:59:49.682Z,90912
2017-09-04T13:00:50.389Z,64896
2017-09-04T13:01:51.350Z,28736
2017-09-04T13:02:52.062Z,21984
2017-09-04T13:03:52.782Z,20864
2017-09-04T13:04:53.497Z,22432
2017-09-04T13:05:54.210Z,23328
2017-09-04T13:06:55.171Z,24448
2017-09-04T13:07:55.877Z,25568
2017-09-04T13:08:56.594Z,25216
2017-09-04T13:09:57.306Z,24960
2017-09-04T13:10:58.014Z,24288
2017-09-04T13:11:58.976Z,26144
2017-09-04T13:12:59.691Z,52704
2017-09-04T13:14:00.413Z,80960
2017-09-04T13:15:01.127Z,90976
2017-09-04T13:16:01.848Z,78624
2017-09-04T13:17:02.806Z,86112
2017-09-04T13:18:03.524Z,74272
2017-09-04T13:19:04.234Z,88768
2017-09-04T13:20:04.948Z,91968
2017-09-04T13:21:05.658Z,89376
2017-09-04T13:22:06.593Z,95136
2017-09-04T13:23:07.331Z,93984
2017-09-04T13:24:08.037Z,86432
2017-09-04T13:25:08.743Z,84320
2017-09-04T13:26:09.455Z,79616
2017-09-04T13:27:10.509Z,77152
2017-09-04T13:28:11.214Z,79936
2017-09-04T13:29:11.922Z,77952
2017-09-04T13:30:12.633Z,80256
2017-09-04T13:31:13.340Z,85088
2017-09-04T13:32:14.299Z,80096
2017-09-04T13:33:15.009Z,74816
2017-09-04T13:34:15.722Z,71264
2017-09-04T13:35:16.431Z,73440
2017-09-04T13:36:17.146Z,70208
2017-09-04T13:37:18.103Z,73728
2017-09-04T13:38:18.813Z,75904
2017-09-04T13:39:19.526Z,73568
2017-09-04T13:40:20.239Z,77984
2017-09-04T13:41:20.948Z,79424
2017-09-04T13:42:21.960Z,70496
2017-09-04T13:43:22.679Z,74496
2017-09-04T13:44:23.386Z,74560
2017-09-04T13:45:24.100Z,74848
2017-09-04T13:46:24.809Z,75552
2017-09-04T13:47:25.778Z,72480
2017-09-04T13:48:26.487Z,84288
2017-09-04T13:49:27.200Z,71040
2017-09-04T13:50:27.912Z,73632
2017-09-04T13:51:28.625Z,81440
2017-09-04T13:52:29.584Z,79904